Time;durP1;ratioP1;P1;durP2;ratioP2;P2;SDS_P1;SDS_P2;PMS_P1;PMS_P2;Temp;Humidity;BMP_temperature;BMP_pressure;BME280_temperature;BME280_humidity;BME280_pressure;Samples;Min_cycle;Max_cycle;Signal;HPM_P1;HPM_P2
2021/11/05 00:02:05;;;;;;;3.00;2.20;;;;;;;8.11;71.72;99323.55;139654;1192;108352;-85
2021/11/05 00:05:11;;;;;;;4.30;2.70;;;;;;;8.14;71.55;99325.06;139361;1192;108383;-84
2021/11/05 00:08:16;;;;;;;4.00;2.80;;;;;;;8.15;71.46;99336.29;139953;1192;107543;-84
2021/11/05 00:11:22;;;;;;;3.30;2.60;;;;;;;8.16;71.44;99338.71;142673;1192;108509;-84
2021/11/05 00:14:27;;;;;;;4.00;2.40;;;;;;;8.15;71.31;99336.61;142447;1192;108371;-85
2021/11/05 00:17:33;;;;;;;4.30;2.70;;;;;;;8.18;71.27;99345.02;140345;1192;108487;-86
2021/11/05 00:20:39;;;;;;;4.90;2.70;;;;;;;8.24;71.28;99344.92;138819;1192;107079;-83
2021/11/05 00:23:44;;;;;;;3.90;2.70;;;;;;;8.31;71.16;99344.26;138930;1192;108943;-80
2021/11/05 00:26:49;;;;;;;4.40;2.40;;;;;;;8.34;71.25;99350.11;140183;1192;108471;-81
2021/11/05 00:29:55;;;;;;;4.30;2.70;;;;;;;8.35;70.89;99349.26;140455;1192;108414;-80
2021/11/05 00:33:00;;;;;;;3.20;2.50;;;;;;;8.35;70.89;99346.63;139251;1192;108640;-82
2021/11/05 00:36:13;;;;;;;3.40;2.40;;;;;;;8.33;70.86;99347.55;138691;1192;107084;-81
2021/11/05 00:39:19;;;;;;;3.20;2.40;;;;;;;8.31;70.96;99348.61;138801;1192;108335;-83
2021/11/05 00:42:24;;;;;;;4.30;2.20;;;;;;;8.31;70.91;99355.92;138779;1192;108448;-82
2021/11/05 00:45:30;;;;;;;3.10;2.40;;;;;;;8.35;70.91;99354.23;138759;1192;107934;-83
2021/11/05 00:48:35;;;;;;;2.80;2.40;;;;;;;8.41;70.70;99353.11;138802;1193;108206;-81
2021/11/05 00:51:41;;;;;;;3.70;2.50;;;;;;;8.46;70.59;99357.36;138775;1192;108653;-81
2021/11/05 00:54:46;;;;;;;3.30;2.20;;;;;;;8.49;70.59;99362.04;138745;1192;108491;-81
2021/11/05 00:57:51;;;;;;;4.80;2.50;;;;;;;8.49;70.54;99355.48;138730;1192;108431;-80
2021/11/05 01:00:57;;;;;;;4.00;2.10;;;;;;;8.49;70.49;99359.90;138761;1192;108447;-77
2021/11/05 01:04:02;;;;;;;3.70;2.40;;;;;;;8.47;70.45;99366.88;138725;1192;108691;-81
2021/11/05 01:07:08;;;;;;;3.40;2.40;;;;;;;8.45;70.41;99364.20;138778;1192;107180;-81
2021/11/05 01:10:14;;;;;;;3.40;2.50;;;;;;;8.43;70.37;99364.20;138830;1192;108465;-83
2021/11/05 01:13:19;;;;;;;2.80;2.50;;;;;;;8.41;70.45;99369.20;138910;1192;109039;-82
2021/11/05 01:16:24;;;;;;;2.60;1.90;;;;;;;8.41;70.44;99369.21;139089;1192;108880;-84
2021/11/05 01:19:30;;;;;;;4.10;2.30;;;;;;;8.44;70.35;99365.70;138852;1196;108444;-85
2021/11/05 01:22:35;;;;;;;3.20;2.20;;;;;;;8.51;70.36;99370.11;140622;1192;108616;-83
2021/11/05 01:25:41;;;;;;;3.60;2.60;;;;;;;8.58;70.19;99363.41;141039;1192;108479;-84
2021/11/05 01:28:46;;;;;;;3.30;2.40;;;;;;;8.59;70.05;99362.52;140722;1192;108433;-81
2021/11/05 01:31:53;;;;;;;3.00;2.10;;;;;;;8.61;69.89;99367.67;140657;1192;107479;-83
2021/11/05 01:34:59;;;;;;;2.40;2.10;;;;;;;8.61;69.82;99369.97;140628;1192;108323;-84
2021/11/05 01:38:06;;;;;;;2.60;2.10;;;;;;;8.59;69.84;99370.83;140753;1192;108173;-86
2021/11/05 01:41:12;;;;;;;5.40;2.30;;;;;;;8.57;69.59;99367.54;140407;1192;108488;-84
2021/11/05 01:44:22;;;;;;;3.00;2.30;;;;;;;8.55;69.71;99367.62;138781;1192;108627;-84
2021/11/05 01:47:27;;;;;;;4.80;2.20;;;;;;;8.53;69.81;99372.58;139753;1192;106797;-83
2021/11/05 01:50:33;;;;;;;2.60;2.10;;;;;;;8.56;69.94;99371.69;139411;1192;107569;-84
2021/11/05 01:53:38;;;;;;;3.80;2.10;;;;;;;8.63;69.76;99381.11;139379;1196;108385;-81
2021/11/05 01:56:45;;;;;;;2.60;2.10;;;;;;;8.69;69.87;99378.17;138722;1192;108435;-83
2021/11/05 01:59:53;;;;;;;2.80;2.50;;;;;;;8.75;69.57;99384.30;138778;1192;107468;-85
2021/11/05 02:02:59;;;;;;;3.90;2.30;;;;;;;8.77;69.70;99380.73;138789;1192;108499;-84
2021/11/05 02:06:05;;;;;;;2.70;2.20;;;;;;;8.77;69.64;99380.91;139710;1192;108470;-86
2021/11/05 02:09:11;;;;;;;4.10;2.40;;;;;;;8.75;69.56;99384.17;140034;1192;108334;-81
2021/11/05 02:12:17;;;;;;;2.50;2.10;;;;;;;8.72;69.62;99381.45;139247;1192;106714;-81
2021/11/05 02:15:23;;;;;;;3.40;2.30;;;;;;;8.69;69.48;99390.77;139538;1192;108611;-81
2021/11/05 02:18:30;;;;;;;3.90;2.30;;;;;;;8.65;69.39;99393.35;141650;1192;108489;-80
2021/11/05 02:21:39;;;;;;;2.80;2.20;;;;;;;8.62;69.68;99394.30;141416;1192;108426;-87
2021/11/05 02:24:45;;;;;;;4.20;2.50;;;;;;;8.64;69.56;99400.80;138823;1192;107548;-83
2021/11/05 02:27:51;;;;;;;3.10;2.10;;;;;;;8.70;69.63;99405.98;138758;1193;108402;-85
2021/11/05 02:30:56;;;;;;;3.20;2.20;;;;;;;8.73;69.47;99406.30;138800;1192;108487;-84
2021/11/05 02:34:01;;;;;;;3.30;2.40;;;;;;;8.73;69.31;99405.94;138781;1192;108500;-84
2021/11/05 02:37:08;;;;;;;3.60;2.60;;;;;;;8.68;69.28;99407.72;138779;1192;106977;-84
2021/11/05 02:40:16;;;;;;;3.20;2.40;;;;;;;8.59;69.34;99410.62;138837;1192;108124;-83
2021/11/05 02:43:21;;;;;;;3.20;2.30;;;;;;;8.47;69.43;99412.39;138729;1192;108225;-83
2021/11/05 02:46:27;;;;;;;3.20;2.30;;;;;;;8.35;69.50;99423.17;138780;1192;108567;-80
2021/11/05 02:49:32;;;;;;;3.10;2.70;;;;;;;8.23;69.47;99434.09;138891;1196;107008;-83
2021/11/05 02:52:37;;;;;;;2.80;2.20;;;;;;;8.16;69.44;99438.00;138725;1194;108496;-84
2021/11/05 02:55:43;;;;;;;4.20;2.40;;;;;;;8.14;69.62;99440.58;138780;1192;108413;-83
2021/11/05 02:58:48;;;;;;;3.10;2.40;;;;;;;8.13;69.67;99441.50;138790;1192;108424;-83
2021/11/05 03:01:54;;;;;;;3.30;2.60;;;;;;;8.16;69.70;99450.09;138922;1192;107438;-84
2021/11/05 03:04:59;;;;;;;3.60;2.60;;;;;;;8.20;69.72;99449.68;139084;1194;108607;-84
2021/11/05 03:08:05;;;;;;;4.40;2.60;;;;;;;8.24;69.36;99451.17;139327;1192;108465;-84
2021/11/05 03:11:12;;;;;;;3.80;2.40;;;;;;;8.27;69.53;99450.38;139161;1192;108788;-84
2021/11/05 03:14:18;;;;;;;3.50;2.90;;;;;;;8.28;69.39;99454.21;138998;1192;108404;-83
2021/11/05 03:17:25;;;;;;;4.30;3.00;;;;;;;8.30;69.42;99461.96;138798;1192;108574;-82
2021/11/05 03:20:30;;;;;;;3.20;2.50;;;;;;;8.32;69.34;99466.06;138874;1192;108615;-85
2021/11/05 03:23:36;;;;;;;3.70;2.90;;;;;;;8.34;69.07;99468.50;138752;1192;108630;-82
2021/11/05 03:26:42;;;;;;;3.20;2.20;;;;;;;8.33;69.22;99464.63;138806;1192;106566;-83
2021/11/05 03:29:47;;;;;;;4.10;2.10;;;;;;;8.34;69.23;99468.23;138747;1192;108271;-84
2021/11/05 03:32:53;;;;;;;3.60;2.60;;;;;;;8.41;69.13;99476.66;138880;1192;108157;-85
2021/11/05 03:35:58;;;;;;;3.40;2.30;;;;;;;8.48;68.90;99478.91;138865;1192;109182;-85
2021/11/05 03:39:06;;;;;;;3.40;2.10;;;;;;;8.56;68.87;99475.74;139423;1192;108609;-85
2021/11/05 03:42:12;;;;;;;2.90;2.30;;;;;;;8.62;68.90;99479.55;139487;1192;108443;-87
2021/11/05 03:45:17;;;;;;;3.50;2.30;;;;;;;8.66;68.67;99484.20;139737;1192;107457;-88
2021/11/05 03:48:23;;;;;;;3.10;2.30;;;;;;;8.68;68.51;99487.17;139421;1192;106473;-90
2021/11/05 03:51:28;;;;;;;5.00;2.40;;;;;;;8.70;68.71;99493.55;139029;1192;107667;-87
2021/11/05 03:54:34;;;;;;;3.80;2.30;;;;;;;8.69;68.47;99492.27;138763;1192;107538;-82
2021/11/05 03:57:39;;;;;;;2.70;2.20;;;;;;;8.67;68.40;99495.98;138954;1192;108890;-81
2021/11/05 04:00:45;;;;;;;2.90;2.40;;;;;;;8.64;68.26;99504.24;138648;1192;108650;-83
2021/11/05 04:03:51;;;;;;;3.20;2.20;;;;;;;8.62;68.52;99501.37;138858;1192;108570;-82
2021/11/05 04:06:57;;;;;;;2.80;2.00;;;;;;;8.62;68.63;99502.34;138856;1194;108638;-83
2021/11/05 04:10:02;;;;;;;3.30;2.40;;;;;;;8.65;68.48;99505.70;138776;1192;108585;-82
2021/11/05 04:13:08;;;;;;;2.90;2.20;;;;;;;8.71;68.45;99512.89;138759;1193;108809;-81
2021/11/05 04:16:14;;;;;;;3.30;2.40;;;;;;;8.77;68.32;99513.35;138786;1193;108463;-81
2021/11/05 04:19:19;;;;;;;3.10;2.50;;;;;;;8.79;68.20;99522.02;138765;1200;108363;-83
2021/11/05 04:22:24;;;;;;;3.30;2.80;;;;;;;8.79;68.13;99528.71;138730;1193;108264;-83
2021/11/05 04:25:30;;;;;;;3.70;2.40;;;;;;;8.79;68.18;99532.97;138761;1196;107472;-82
2021/11/05 04:28:36;;;;;;;2.70;2.40;;;;;;;8.79;68.15;99538.89;138759;1193;108464;-83
2021/11/05 04:31:42;;;;;;;3.50;2.90;;;;;;;8.77;67.83;99544.91;138803;1192;107263;-80
2021/11/05 04:34:47;;;;;;;20.30;15.00;;;;;;;8.75;68.00;99549.61;138818;1197;108700;-80
2021/11/05 04:37:53;;;;;;;6.10;4.10;;;;;;;8.71;67.86;99551.58;138734;1192;108416;-81
2021/11/05 04:40:59;;;;;;;40.70;24.90;;;;;;;8.69;68.09;99559.02;138782;1193;108434;-81
2021/11/05 04:44:04;;;;;;;5.80;4.10;;;;;;;8.68;68.00;99564.84;138738;1192;108937;-81
2021/11/05 04:47:10;;;;;;;6.50;5.50;;;;;;;8.66;67.88;99569.28;138759;1192;107315;-81
2021/11/05 04:50:15;;;;;;;5.60;4.30;;;;;;;8.69;67.92;99582.33;138756;1193;108734;-81
2021/11/05 04:53:21;;;;;;;4.80;3.50;;;;;;;8.74;67.78;99592.77;138751;1192;108564;-81
2021/11/05 04:56:27;;;;;;;11.40;9.70;;;;;;;8.79;67.72;99596.45;138766;1193;108403;-81
2021/11/05 04:59:32;;;;;;;6.20;4.50;;;;;;;8.84;67.70;99600.37;138729;1192;108089;-82
2021/11/05 05:02:38;;;;;;;4.50;3.40;;;;;;;8.86;67.37;99597.95;138859;1193;108386;-82
2021/11/05 05:05:43;;;;;;;4.80;3.60;;;;;;;8.83;67.58;99605.42;138829;1193;108466;-82
2021/11/05 05:08:49;;;;;;;4.90;3.60;;;;;;;8.82;67.64;99607.50;138738;1193;108581;-83
2021/11/05 05:11:54;;;;;;;4.30;3.30;;;;;;;8.80;67.37;99604.14;138802;1178;108582;-80
2021/11/05 05:14:59;;;;;;;5.20;3.30;;;;;;;8.77;67.56;99612.53;138654;1193;108507;-82
2021/11/05 05:18:05;;;;;;;210.10;105.90;;;;;;;8.72;67.69;99618.17;138824;1194;108221;-83
2021/11/05 05:21:10;;;;;;;31.00;17.10;;;;;;;8.69;67.65;99623.81;138884;1192;108560;-82
2021/11/05 05:24:15;;;;;;;8.50;5.60;;;;;;;8.65;67.58;99634.03;138788;1192;108583;-83
2021/11/05 05:27:21;;;;;;;28.80;19.10;;;;;;;8.63;67.63;99643.29;138841;1192;107410;-82
2021/11/05 05:30:26;;;;;;;201.60;115.90;;;;;;;8.66;67.70;99652.02;138785;1193;108449;-83
2021/11/05 05:33:32;;;;;;;92.80;53.90;;;;;;;8.70;67.50;99659.25;138739;1194;108467;-81
2021/11/05 05:36:37;;;;;;;31.30;19.30;;;;;;;8.76;67.39;99661.40;138759;1194;108462;-83
2021/11/05 05:39:43;;;;;;;93.90;37.60;;;;;;;8.80;67.39;99665.19;138785;1192;107805;-84
2021/11/05 05:42:49;;;;;;;67.70;34.60;;;;;;;8.81;67.05;99670.55;138891;1192;108690;-81
2021/11/05 05:45:54;;;;;;;20.10;10.90;;;;;;;8.80;67.34;99679.02;138823;1193;108434;-85
2021/11/05 05:49:00;;;;;;;7.50;4.60;;;;;;;8.79;67.11;99686.38;139173;1193;108405;-82
2021/11/05 05:52:06;;;;;;;5.40;4.00;;;;;;;8.77;67.16;99697.28;138912;1192;108593;-81
2021/11/05 05:55:13;;;;;;;22.40;17.10;;;;;;;8.75;67.31;99704.68;138784;1192;108294;-82
2021/11/05 05:58:19;;;;;;;12.10;8.80;;;;;;;8.72;67.20;99714.40;138816;1199;108244;-81
2021/11/05 06:01:24;;;;;;;13.10;11.70;;;;;;;8.70;67.25;99720.46;138782;1193;108470;-81
2021/11/05 06:04:29;;;;;;;7.90;5.80;;;;;;;8.69;67.21;99722.70;138892;1193;108366;-79
2021/11/05 06:07:35;;;;;;;10.00;7.80;;;;;;;8.66;67.12;99733.64;138864;1193;107077;-77
2021/11/05 06:40:24;;;;;;;21.00;14.50;;;;;;;8.88;67.15;99776.14;136775;1209;648285;-82
2021/11/05 06:43:30;;;;;;;20.60;14.40;;;;;;;9.02;66.64;99786.77;138717;1193;109291;-82
2021/11/05 06:46:36;;;;;;;30.90;12.50;;;;;;;9.07;66.66;99785.27;138760;1193;108269;-81
2021/11/05 06:49:41;;;;;;;10.80;6.70;;;;;;;9.10;66.72;99790.29;138606;1193;108376;-81
2021/11/05 06:52:46;;;;;;;6.00;4.80;;;;;;;9.12;66.91;99795.17;138665;1186;108449;-80
2021/11/05 06:55:52;;;;;;;10.80;7.60;;;;;;;9.13;66.67;99800.06;138668;1193;108645;-80
2021/11/05 06:59:01;;;;;;;6.70;4.30;;;;;;;9.11;66.38;99806.67;138648;1200;108572;-81
2021/11/05 07:02:07;;;;;;;8.30;7.20;;;;;;;9.08;66.50;99813.03;138675;1195;108412;-78
2021/11/05 07:05:15;;;;;;;24.60;19.90;;;;;;;9.02;66.59;99817.60;139296;1190;108161;-80
2021/11/05 07:08:20;;;;;;;20.20;14.70;;;;;;;9.00;66.43;99819.61;139450;1190;108279;-81
2021/11/05 07:11:25;;;;;;;36.70;24.90;;;;;;;8.99;66.28;99827.37;139274;1196;108578;-80
2021/11/05 07:14:31;;;;;;;54.00;38.50;;;;;;;8.97;66.30;99833.77;139369;1190;108420;-82
2021/11/05 07:17:36;;;;;;;10.90;8.20;;;;;;;8.94;66.42;99834.63;139361;1190;108537;-81
2021/11/05 07:20:43;;;;;;;12.10;8.40;;;;;;;8.94;66.47;99845.02;139348;1189;108484;-80
2021/11/05 07:23:49;;;;;;;354.80;149.40;;;;;;;8.99;66.45;99841.84;139369;1190;107013;-80
2021/11/05 07:26:56;;;;;;;93.90;58.20;;;;;;;9.09;66.39;99844.46;139323;1190;109399;-81
2021/11/05 07:30:01;;;;;;;14.80;8.40;;;;;;;9.17;66.01;99848.77;139336;1196;108518;-78
2021/11/05 07:33:07;;;;;;;10.30;5.90;;;;;;;9.22;65.92;99847.02;139564;1191;108381;-78
2021/11/05 07:36:12;;;;;;;7.70;4.50;;;;;;;9.29;66.02;99851.69;140331;1189;108651;-78
2021/11/05 07:39:17;;;;;;;5.50;4.00;;;;;;;9.38;66.02;99851.33;139501;1190;108695;-79
2021/11/05 07:42:23;;;;;;;5.00;4.00;;;;;;;9.42;66.00;99854.98;139301;1190;108847;-80
2021/11/05 07:45:28;;;;;;;40.10;31.10;;;;;;;9.42;65.91;99862.08;139367;1196;108482;-77
2021/11/05 07:48:34;;;;;;;52.00;35.50;;;;;;;9.44;65.72;99859.75;139234;1190;108457;-80
2021/11/05 07:51:39;;;;;;;49.10;35.00;;;;;;;9.47;65.98;99862.67;139261;1196;108526;-78
2021/11/05 07:54:44;;;;;;;23.00;17.50;;;;;;;9.52;65.76;99865.15;139246;1194;108325;-78
2021/11/05 07:57:50;;;;;;;15.20;11.80;;;;;;;9.55;65.63;99871.80;139247;1190;108626;-77
2021/11/05 08:00:55;;;;;;;17.60;14.40;;;;;;;9.57;65.79;99875.10;139402;1181;108430;-77
2021/11/05 08:04:01;;;;;;;21.30;17.10;;;;;;;9.59;65.38;99882.50;139377;1190;107463;-78
2021/11/05 08:07:06;;;;;;;47.10;35.50;;;;;;;9.61;65.54;99880.95;139246;1190;108363;-79
2021/11/05 08:10:20;;;;;;;16.10;12.40;;;;;;;9.65;65.37;99884.80;139309;1189;108381;-79
2021/11/05 08:13:25;;;;;;;9.40;7.40;;;;;;;9.71;65.30;99887.58;139363;1193;108503;-79
2021/11/05 08:16:31;;;;;;;7.30;4.90;;;;;;;9.79;65.22;99890.29;139324;1196;108241;-79
2021/11/05 08:19:36;;;;;;;12.60;8.50;;;;;;;9.76;65.14;99892.58;139321;1181;108502;-79
2021/11/05 08:22:43;;;;;;;14.10;10.50;;;;;;;9.75;65.46;99895.16;139337;1190;108487;-80
2021/11/05 08:25:49;;;;;;;26.70;19.40;;;;;;;9.84;65.30;99891.55;139307;1180;108459;-79
2021/11/05 08:28:55;;;;;;;19.70;13.70;;;;;;;9.97;65.33;99891.13;139306;1190;108609;-79
2021/11/05 08:32:00;;;;;;;8.00;5.90;;;;;;;10.09;64.69;99892.77;139321;1190;108401;-79
2021/11/05 08:35:08;;;;;;;8.50;6.20;;;;;;;10.18;64.91;99903.48;139370;1190;108336;-80
2021/11/05 08:38:15;;;;;;;10.60;8.20;;;;;;;10.24;64.70;99911.97;139366;1193;107234;-80
2021/11/05 08:41:21;;;;;;;11.60;8.80;;;;;;;10.25;64.71;99917.04;139251;1189;108637;-79
2021/11/05 08:44:26;;;;;;;12.10;9.70;;;;;;;10.29;64.36;99931.76;139336;1190;108535;-77
2021/11/05 08:47:32;;;;;;;13.80;10.50;;;;;;;10.33;64.77;99938.80;139281;1191;108423;-79
2021/11/05 08:50:37;;;;;;;25.00;18.30;;;;;;;10.39;64.56;99948.71;139321;1190;108245;-79
2021/11/05 08:53:43;;;;;;;16.80;11.90;;;;;;;10.42;64.37;99954.98;139088;1190;108174;-80
2021/11/05 08:56:49;;;;;;;9.70;6.90;;;;;;;10.43;64.54;99958.09;139326;1189;108475;-79
2021/11/05 08:59:54;;;;;;;11.20;7.70;;;;;;;10.46;64.53;99970.05;139362;1196;108490;-78
2021/11/05 09:02:59;;;;;;;18.70;12.10;;;;;;;10.51;64.55;99972.55;139438;1190;108466;-79
2021/11/05 09:06:05;;;;;;;12.80;7.90;;;;;;;10.55;64.26;99977.09;139374;1193;108314;-78
2021/11/05 09:09:11;;;;;;;122.80;59.40;;;;;;;10.59;64.59;99975.38;139285;1190;109277;-78
2021/11/05 09:12:16;;;;;;;33.90;22.10;;;;;;;10.66;64.70;99981.14;139294;1190;108571;-78
2021/11/05 09:15:25;;;;;;;21.50;15.40;;;;;;;10.69;64.35;99976.55;139308;1190;108562;-78
2021/11/05 09:18:31;;;;;;;20.20;15.10;;;;;;;10.67;64.15;99974.74;139282;1190;108652;-78
2021/11/05 09:21:36;;;;;;;19.40;14.70;;;;;;;10.60;64.04;99974.05;139210;1190;108591;-80
2021/11/05 09:24:42;;;;;;;45.50;30.10;;;;;;;10.55;64.19;99978.15;139299;1190;108525;-79
2021/11/05 09:27:48;;;;;;;13.90;9.90;;;;;;;10.48;63.96;99991.52;139364;1190;108503;-78
2021/11/05 09:30:53;;;;;;;54.80;36.70;;;;;;;10.44;63.90;100001.17;139270;1190;107396;-79
2021/11/05 09:33:58;;;;;;;60.60;42.80;;;;;;;10.44;63.72;100005.11;139358;1190;108327;-79
2021/11/05 09:37:07;;;;;;;28.70;19.10;;;;;;;10.42;64.39;100017.36;139325;1190;108537;-79
2021/11/05 09:40:15;;;;;;;35.20;24.70;;;;;;;10.39;64.47;100025.88;139262;1196;108556;-79
2021/11/05 09:43:21;;;;;;;15.90;10.70;;;;;;;10.32;64.04;100025.17;139367;1189;108097;-79
2021/11/05 09:46:26;;;;;;;53.60;35.50;;;;;;;10.23;63.94;100030.09;139409;1196;108532;-79
2021/11/05 09:49:32;;;;;;;49.10;32.10;;;;;;;10.13;64.14;100034.71;139271;1190;108366;-79
2021/11/05 09:52:40;;;;;;;72.60;46.10;;;;;;;10.04;64.04;100045.02;139318;1189;108503;-79
2021/11/05 09:55:47;;;;;;;49.20;31.60;;;;;;;9.96;64.33;100054.15;139434;1189;108427;-79
2021/11/05 09:58:52;;;;;;;350.10;145.90;;;;;;;9.92;64.53;100061.28;139358;1190;108459;-78
2021/11/05 10:01:58;;;;;;;24.40;15.40;;;;;;;9.88;64.43;100063.30;139303;1190;108372;-79
2021/11/05 10:05:05;;;;;;;12.30;7.70;;;;;;;9.86;64.55;100067.59;139336;1190;108532;-79
2021/11/05 10:08:11;;;;;;;10.70;5.80;;;;;;;9.89;64.53;100071.41;139436;1190;109143;-79
2021/11/05 10:11:27;;;;;;;8.90;5.50;;;;;;;9.95;64.74;100081.59;139263;1190;109495;-79
2021/11/05 10:14:32;;;;;;;6.80;5.10;;;;;;;10.11;64.38;100078.82;139238;1189;109299;-78
2021/11/05 10:17:37;;;;;;;8.40;5.60;;;;;;;10.26;64.08;100083.48;139240;1190;108414;-79
2021/11/05 10:20:45;;;;;;;6.50;5.20;;;;;;;10.43;64.24;100084.35;139409;1196;108324;-79
2021/11/05 10:23:50;;;;;;;5.70;4.10;;;;;;;10.57;64.06;100081.27;139494;1189;108103;-79
2021/11/05 10:26:55;;;;;;;4.50;3.50;;;;;;;10.67;64.04;100082.48;139219;1189;108435;-80
2021/11/05 10:30:05;;;;;;;3.30;2.80;;;;;;;10.64;63.87;100084.17;139342;1190;107349;-79
2021/11/05 10:33:12;;;;;;;3.50;2.40;;;;;;;10.53;64.23;100094.27;139283;1196;108435;-80
2021/11/05 10:36:19;;;;;;;4.40;3.40;;;;;;;10.44;64.19;100118.31;139354;1190;108617;-80
2021/11/05 10:39:25;;;;;;;6.10;5.50;;;;;;;10.42;64.45;100119.97;139273;1196;108353;-78
2021/11/05 10:42:35;;;;;;;4.40;3.80;;;;;;;10.43;64.54;100128.38;139254;1190;108352;-79
2021/11/05 10:45:42;;;;;;;4.10;3.30;;;;;;;10.35;65.14;100129.80;139322;1190;108584;-79
2021/11/05 10:48:47;;;;;;;4.60;3.20;;;;;;;10.25;65.39;100131.63;139406;1190;108280;-79
2021/11/05 10:51:53;;;;;;;8.50;4.70;;;;;;;10.11;65.52;100125.94;139308;1190;108335;-79
2021/11/05 10:55:01;;;;;;;4.80;3.80;;;;;;;10.15;65.72;100128.98;139254;1196;108492;-80
2021/11/05 10:58:07;;;;;;;7.80;6.10;;;;;;;10.27;65.63;100121.78;139352;1190;108487;-79
2021/11/05 11:01:15;;;;;;;7.00;5.70;;;;;;;10.35;65.57;100119.61;139252;1190;108453;-79
2021/11/05 11:04:29;;;;;;;19.60;15.10;;;;;;;10.52;65.26;100123.44;139261;1190;108418;-80
2021/11/05 11:07:36;;;;;;;22.00;16.70;;;;;;;10.65;65.37;100126.53;139246;1189;107652;-79
2021/11/05 11:10:42;;;;;;;10.90;9.10;;;;;;;10.73;64.92;100125.56;139296;1189;109342;-77
2021/11/05 11:13:51;;;;;;;19.30;13.00;;;;;;;10.73;64.50;100125.31;139296;1189;108412;-79
2021/11/05 11:17:03;;;;;;;27.40;18.20;;;;;;;10.68;64.22;100134.41;139398;1181;108370;-79
2021/11/05 11:20:30;;;;;;;25.40;17.60;;;;;;;10.67;64.46;100133.88;139329;1190;108895;-79
2021/11/05 11:23:36;;;;;;;55.00;36.20;;;;;;;10.71;64.71;100135.67;139318;1190;108463;-79
2021/11/05 11:26:41;;;;;;;119.40;74.20;;;;;;;10.82;64.82;100135.61;139350;1190;108613;-79
2021/11/05 11:29:48;;;;;;;26.50;17.50;;;;;;;10.96;64.47;100135.27;139319;1190;108022;-79
2021/11/05 11:32:53;;;;;;;54.20;34.00;;;;;;;10.97;64.41;100133.22;139372;1190;108398;-79
2021/11/05 11:36:00;;;;;;;30.50;19.80;;;;;;;10.98;64.45;100136.70;139395;1188;108400;-78
2021/11/05 11:39:07;;;;;;;27.40;18.10;;;;;;;10.95;64.18;100138.34;139363;1191;108107;-78
2021/11/05 11:42:13;;;;;;;24.50;16.80;;;;;;;10.84;64.09;100140.99;139355;1189;108418;-78
2021/11/05 11:45:19;;;;;;;36.80;25.80;;;;;;;10.82;64.23;100152.39;139312;1190;108590;-79
2021/11/05 11:48:49;;;;;;;89.00;58.00;;;;;;;10.84;64.45;100158.91;139308;1191;108432;-79
2021/11/05 11:51:55;;;;;;;42.60;29.30;;;;;;;10.86;64.38;100156.27;139477;1189;108364;-79
2021/11/05 11:55:17;;;;;;;52.00;35.60;;;;;;;10.86;64.17;100155.86;139235;1189;108608;-79
2021/11/05 11:58:23;;;;;;;27.90;19.30;;;;;;;10.86;64.34;100161.81;139318;1191;108326;-79
2021/11/05 12:01:30;;;;;;;41.90;29.10;;;;;;;10.85;64.53;100162.58;139320;1188;108540;-78
2021/11/05 12:04:36;;;;;;;25.50;18.00;;;;;;;10.87;64.49;100166.10;139362;1189;108577;-78
2021/11/05 12:07:42;;;;;;;29.40;20.40;;;;;;;10.90;64.31;100163.27;139224;1189;108554;-79
2021/11/05 12:10:52;;;;;;;26.20;17.10;;;;;;;10.89;64.16;100161.80;139322;1190;108543;-79
2021/11/05 12:14:13;;;;;;;128.30;78.10;;;;;;;10.88;64.42;100169.91;139395;1189;107484;-79
2021/11/05 12:17:18;;;;;;;28.10;19.30;;;;;;;10.90;64.27;100171.64;139439;1190;107415;-77
2021/11/05 12:20:30;;;;;;;30.20;24.60;;;;;;;10.94;64.32;100177.52;139281;1196;108601;-78
2021/11/05 12:23:37;;;;;;;65.40;52.80;;;;;;;10.94;64.08;100179.63;139318;1188;108665;-79
2021/11/05 12:26:44;;;;;;;29.70;25.00;;;;;;;10.92;64.18;100183.95;139245;1189;108417;-79
2021/11/05 12:29:55;;;;;;;75.00;59.40;;;;;;;10.88;64.03;100191.96;139460;1181;108203;-79
2021/11/05 12:33:31;;;;;;;18.80;15.50;;;;;;;10.87;64.41;100195.59;139613;1181;108291;-79
2021/11/05 12:36:51;;;;;;;35.00;29.70;;;;;;;10.86;64.26;100200.60;139414;1190;108420;-79
2021/11/05 12:40:18;;;;;;;26.50;22.90;;;;;;;10.80;64.16;100205.89;139337;1174;108369;-80
2021/11/05 12:43:44;;;;;;;115.80;52.90;;;;;;;10.77;63.94;100209.11;139354;1190;108411;-80
2021/11/05 12:46:50;;;;;;;234.60;126.10;;;;;;;10.74;63.64;100203.52;139393;1190;108119;-79
2021/11/05 12:50:01;;;;;;;124.20;69.70;;;;;;;10.73;63.87;100202.80;139369;1188;108393;-77
2021/11/05 12:53:09;;;;;;;61.00;34.00;;;;;;;10.73;64.07;100202.80;139296;1189;108471;-79
2021/11/05 12:56:23;;;;;;;92.10;48.10;;;;;;;10.75;63.99;100203.14;139405;1190;108591;-79
2021/11/05 12:59:31;;;;;;;360.60;186.20;;;;;;;10.79;64.09;100208.25;139422;1189;108365;-79
2021/11/05 13:02:36;;;;;;;232.20;104.70;;;;;;;10.82;64.21;100209.48;139300;1190;108346;-79
2021/11/05 13:05:51;;;;;;;322.90;174.30;;;;;;;10.83;64.09;100212.22;139306;1189;108536;-79
2021/11/05 13:08:56;;;;;;;83.80;51.40;;;;;;;10.81;64.17;100218.83;139245;1190;108282;-79
2021/11/05 13:12:05;;;;;;;31.20;22.20;;;;;;;10.79;64.17;100221.69;139319;1181;107595;-79
2021/11/05 13:15:10;;;;;;;10.90;7.70;;;;;;;10.77;64.20;100231.89;139337;1188;107578;-79
2021/11/05 13:18:16;;;;;;;5.60;4.60;;;;;;;10.71;64.43;100238.23;139286;1181;107862;-79
2021/11/05 13:21:23;;;;;;;5.00;3.20;;;;;;;10.66;64.44;100244.58;139280;1190;108340;-79
2021/11/05 13:24:28;;;;;;;4.00;3.10;;;;;;;10.66;64.91;100244.27;139296;1190;109295;-79
2021/11/05 13:27:34;;;;;;;5.00;3.00;;;;;;;10.67;64.89;100248.92;139391;1190;108653;-80
2021/11/05 13:30:44;;;;;;;4.30;3.80;;;;;;;10.72;64.96;100255.90;139363;1189;108499;-79
2021/11/05 13:33:51;;;;;;;4.20;3.10;;;;;;;10.75;64.87;100254.66;139373;1190;108336;-80
2021/11/05 13:37:01;;;;;;;19.60;17.60;;;;;;;10.74;64.87;100257.67;139232;1190;108384;-80
2021/11/05 13:40:08;;;;;;;9.10;7.40;;;;;;;10.66;64.79;100258.48;139349;1190;108719;-78
2021/11/05 13:43:15;;;;;;;9.20;6.70;;;;;;;10.59;64.98;100258.94;139294;1188;108697;-79
2021/11/05 13:46:25;;;;;;;5.60;4.10;;;;;;;10.54;64.97;100267.38;139352;1190;108435;-79
2021/11/05 13:49:30;;;;;;;7.40;4.70;;;;;;;10.52;65.23;100264.31;139385;1190;107023;-79
2021/11/05 13:52:37;;;;;;;50.80;16.80;;;;;;;10.43;64.74;100267.45;139352;1190;108537;-79
2021/11/05 13:55:43;;;;;;;57.80;18.10;;;;;;;10.32;65.07;100259.30;139499;1189;108493;-79
2021/11/05 13:58:53;;;;;;;12.10;7.00;;;;;;;10.25;65.32;100266.54;139397;1190;108334;-80
2021/11/05 14:02:00;;;;;;;7.30;4.60;;;;;;;10.18;65.08;100269.73;139415;1190;107556;-79
2021/11/05 14:05:06;;;;;;;10.00;6.90;;;;;;;10.14;65.29;100277.20;139331;1190;108515;-79
2021/11/05 14:08:13;;;;;;;7.30;4.60;;;;;;;10.14;65.16;100280.45;139479;1188;108477;-80
2021/11/05 14:11:30;;;;;;;6.80;5.10;;;;;;;10.14;65.28;100285.41;139485;1189;108409;-78
2021/11/05 14:14:36;;;;;;;11.80;8.00;;;;;;;10.16;65.15;100286.06;139302;1189;106819;-79
2021/11/05 14:17:45;;;;;;;12.80;8.30;;;;;;;10.13;65.37;100290.77;139341;1190;108293;-79
2021/11/05 14:20:51;;;;;;;11.10;7.30;;;;;;;10.09;65.56;100291.02;139298;1190;108382;-80
2021/11/05 14:24:13;;;;;;;9.40;7.40;;;;;;;10.07;65.69;100296.60;139453;1184;108194;-79
2021/11/05 14:27:23;;;;;;;10.30;7.40;;;;;;;10.04;65.47;100295.21;139317;1182;107683;-79
2021/11/05 14:30:31;;;;;;;9.20;7.10;;;;;;;10.00;65.68;100296.18;139419;1189;108572;-80
2021/11/05 14:33:37;;;;;;;9.20;7.30;;;;;;;9.94;65.98;100301.34;139383;1190;108413;-79
2021/11/05 14:36:43;;;;;;;62.20;40.60;;;;;;;9.89;65.77;100305.98;139336;1190;106846;-79
2021/11/05 14:39:57;;;;;;;10.50;8.30;;;;;;;9.86;65.79;100311.36;139277;1190;108637;-79
2021/11/05 14:43:07;;;;;;;11.50;9.40;;;;;;;9.81;66.07;100317.12;139358;1190;107504;-78